Time;durP1;ratioP1;P1;durP2;ratioP2;P2;SDS_P1;SDS_P2;PMS_P1;PMS_P2;Temp;Humidity;BMP_temperature;BMP_pressure;BME280_temperature;BME280_humidity;BME280_pressure;Samples;Min_cycle;Max_cycle;Signal;HPM_P1;HPM_P2
2024/02/25 00:00:57;;;;;;;7.50;3.25;;;;;;;;;;4881666;29;20049;-89
2024/02/25 00:03:27;;;;;;;6.68;3.42;;;;;;;;;;4912134;29;20060;-93
2024/02/25 00:06:07;;;;;;;7.07;3.28;;;;;;;;;;4883626;29;20044;-92
2024/02/25 00:08:37;;;;;;;7.78;3.22;;;;;;;;;;4905783;29;20059;-93
2024/02/25 00:11:07;;;;;;;8.43;3.50;;;;;;;;;;4894606;29;20543;-92
2024/02/25 00:13:40;;;;;;;6.22;3.38;;;;;;;;;;4878725;29;20057;-91
2024/02/25 00:16:11;;;;;;;7.75;3.53;;;;;;;;;;4889897;29;20053;-91
2024/02/25 00:18:41;;;;;;;8.77;3.10;;;;;;;;;;4877258;29;20045;-92
2024/02/25 00:21:22;;;;;;;10.77;2.88;;;;;;;;;;4894062;29;20063;-92
2024/02/25 00:23:55;;;;;;;7.63;3.13;;;;;;;;;;4906981;29;20431;-92
2024/02/25 00:26:27;;;;;;;9.55;2.78;;;;;;;;;;4888463;29;20167;-91
2024/02/25 00:28:58;;;;;;;7.05;3.22;;;;;;;;;;4884562;29;20064;-93
2024/02/25 00:31:30;;;;;;;5.80;2.97;;;;;;;;;;4865698;29;20049;-92
2024/02/25 00:34:00;;;;;;;7.47;2.42;;;;;;;;;;4882562;29;20056;-92
2024/02/25 00:36:31;;;;;;;5.78;2.28;;;;;;;;;;4884320;29;20057;-92
2024/02/25 00:39:02;;;;;;;6.47;2.38;;;;;;;;;;4898100;29;20056;-91
2024/02/25 00:41:33;;;;;;;5.78;2.35;;;;;;;;;;4888312;29;20060;-93
2024/02/25 00:44:03;;;;;;;8.52;2.80;;;;;;;;;;4892211;29;20057;-91
2024/02/25 00:46:33;;;;;;;5.95;2.75;;;;;;;;;;4894666;29;20052;-89
2024/02/25 00:49:07;;;;;;;5.25;2.75;;;;;;;;;;4886273;29;20061;-90
2024/02/25 00:51:39;;;;;;;9.85;2.97;;;;;;;;;;4893658;29;20053;-90
2024/02/25 00:54:10;;;;;;;12.63;3.15;;;;;;;;;;4910871;29;20067;-90
2024/02/25 00:56:43;;;;;;;7.50;2.85;;;;;;;;;;4885500;29;20045;-90
2024/02/25 00:59:14;;;;;;;9.38;2.53;;;;;;;;;;4889810;29;20060;-91
2024/02/25 01:01:50;;;;;;;6.93;3.00;;;;;;;;;;4897548;29;20056;-91
2024/02/25 01:04:21;;;;;;;6.95;3.00;;;;;;;;;;4881578;29;20060;-89
2024/02/25 01:06:52;;;;;;;5.50;3.00;;;;;;;;;;4895598;29;20500;-89
2024/02/25 01:09:23;;;;;;;9.57;3.40;;;;;;;;;;4896587;29;20044;-88
2024/02/25 01:11:54;;;;;;;6.45;2.67;;;;;;;;;;4896244;29;20057;-90
2024/02/25 01:14:25;;;;;;;5.35;2.80;;;;;;;;;;4896456;29;20531;-90
2024/02/25 01:16:55;;;;;;;7.15;3.05;;;;;;;;;;4896091;29;20053;-89
2024/02/25 01:19:26;;;;;;;9.80;3.55;;;;;;;;;;4882506;29;20065;-88
2024/02/25 01:21:57;;;;;;;9.32;3.05;;;;;;;;;;4900502;29;20056;-92
2024/02/25 01:24:35;;;;;;;7.82;3.10;;;;;;;;;;4899344;29;20068;-93
2024/02/25 01:27:06;;;;;;;7.88;3.28;;;;;;;;;;4901215;29;20059;-92
2024/02/25 01:29:36;;;;;;;9.43;2.42;;;;;;;;;;4899738;29;20388;-91
2024/02/25 01:32:07;;;;;;;8.68;2.97;;;;;;;;;;4900588;29;20056;-90
2024/02/25 01:34:40;;;;;;;8.20;2.90;;;;;;;;;;4900108;29;20067;-90
2024/02/25 01:37:11;;;;;;;9.27;2.88;;;;;;;;;;4900795;29;20093;-91
2024/02/25 01:39:43;;;;;;;6.43;2.90;;;;;;;;;;4900992;29;20045;-91
2024/02/25 01:42:18;;;;;;;12.63;3.20;;;;;;;;;;4901681;29;20041;-91
2024/02/25 01:44:58;;;;;;;9.65;2.95;;;;;;;;;;4900293;29;20406;-91
2024/02/25 01:47:29;;;;;;;9.88;3.05;;;;;;;;;;4901802;29;20403;-89
2024/02/25 01:50:01;;;;;;;10.77;3.35;;;;;;;;;;4899714;29;20056;-91
2024/02/25 01:52:32;;;;;;;9.45;4.57;;;;;;;;;;4900062;29;20067;-92
2024/02/25 01:55:04;;;;;;;10.15;4.95;;;;;;;;;;4915918;29;20071;-92
2024/02/25 01:57:34;;;;;;;7.63;3.65;;;;;;;;;;4900136;29;20059;-92
2024/02/25 02:00:06;;;;;;;6.65;3.25;;;;;;;;;;4915022;29;20059;-92
2024/02/25 02:02:36;;;;;;;;;;;;;;;;;;4900893;29;20493;-92
2024/02/25 02:05:07;;;;;;;7.75;3.35;;;;;;;;;;4899238;29;20289;-92
2024/02/25 02:07:39;;;;;;;10.90;3.63;;;;;;;;;;4900851;29;20056;-92
2024/02/25 02:10:09;;;;;;;11.02;3.30;;;;;;;;;;4914881;29;20057;-92
2024/02/25 02:12:43;;;;;;;8.77;3.05;;;;;;;;;;4899397;29;20052;-90
2024/02/25 02:15:15;;;;;;;10.27;3.70;;;;;;;;;;4915408;29;20052;-88
2024/02/25 02:17:46;;;;;;;17.48;3.35;;;;;;;;;;4899239;29;20087;-89
2024/02/25 02:20:20;;;;;;;9.13;4.00;;;;;;;;;;4914686;29;20056;-90
2024/02/25 02:22:51;;;;;;;6.50;3.25;;;;;;;;;;4898510;29;20399;-89
2024/02/25 02:25:22;;;;;;;8.02;2.92;;;;;;;;;;4898297;29;20063;-92
2024/02/25 02:27:54;;;;;;;13.57;4.15;;;;;;;;;;4899609;29;20059;-90
2024/02/25 02:30:25;;;;;;;10.82;3.83;;;;;;;;;;4898747;29;20052;-90
2024/02/25 02:32:55;;;;;;;9.73;3.63;;;;;;;;;;4883636;29;20049;-90
2024/02/25 02:35:26;;;;;;;10.10;3.35;;;;;;;;;;4898677;29;20056;-92
2024/02/25 02:38:00;;;;;;;10.25;3.83;;;;;;;;;;4899835;29;20060;-94
2024/02/25 02:40:31;;;;;;;9.40;4.13;;;;;;;;;;4891120;29;20056;-92
2024/02/25 02:43:03;;;;;;;11.18;3.65;;;;;;;;;;4865091;29;20057;-93
2024/02/25 02:45:36;;;;;;;10.15;3.40;;;;;;;;;;4880431;29;20053;-92
2024/02/25 02:48:09;;;;;;;9.43;3.25;;;;;;;;;;4881155;29;20053;-92
2024/02/25 02:50:44;;;;;;;11.30;3.40;;;;;;;;;;4881812;29;20057;-93
2024/02/25 02:53:15;;;;;;;11.73;3.75;;;;;;;;;;4880723;29;20519;-91
2024/02/25 02:55:46;;;;;;;7.50;3.35;;;;;;;;;;4879824;29;20053;-90
2024/02/25 02:58:18;;;;;;;7.93;3.20;;;;;;;;;;4864615;29;20408;-90
2024/02/25 03:00:50;;;;;;;9.73;2.80;;;;;;;;;;4879037;29;20066;-90
2024/02/25 03:03:21;;;;;;;6.65;3.35;;;;;;;;;;4864638;29;20057;-90
2024/02/25 03:05:52;;;;;;;7.90;2.88;;;;;;;;;;4895075;29;20060;-90
2024/02/25 03:08:23;;;;;;;11.27;3.40;;;;;;;;;;4879353;29;20045;-90
2024/02/25 03:10:55;;;;;;;9.35;3.45;;;;;;;;;;4878453;29;20080;-90
2024/02/25 03:13:26;;;;;;;7.90;3.10;;;;;;;;;;4880252;29;20053;-92
2024/02/25 03:15:57;;;;;;;9.07;3.65;;;;;;;;;;4879766;29;20060;-91
2024/02/25 03:18:27;;;;;;;8.52;3.53;;;;;;;;;;4864475;29;20057;-92
2024/02/25 03:21:00;;;;;;;10.10;4.88;;;;;;;;;;4894478;29;20057;-90
2024/02/25 03:23:33;;;;;;;13.25;4.53;;;;;;;;;;4880052;29;20049;-91
2024/02/25 03:26:04;;;;;;;11.63;3.83;;;;;;;;;;4878719;29;20057;-92
2024/02/25 03:28:34;;;;;;;11.93;4.25;;;;;;;;;;4864658;29;20048;-90
2024/02/25 03:31:05;;;;;;;7.70;3.80;;;;;;;;;;4878687;29;20064;-91
2024/02/25 03:33:36;;;;;;;11.38;3.55;;;;;;;;;;4863996;29;20053;-90
2024/02/25 03:36:10;;;;;;;12.88;3.90;;;;;;;;;;4878914;29;20060;-92
2024/02/25 03:38:43;;;;;;;11.27;4.15;;;;;;;;;;4865042;29;20373;-91
2024/02/25 03:41:17;;;;;;;9.73;3.92;;;;;;;;;;4878989;29;20053;-90
2024/02/25 03:43:47;;;;;;;6.20;3.60;;;;;;;;;;4895124;29;20053;-90
2024/02/25 03:46:18;;;;;;;10.95;3.70;;;;;;;;;;4878017;29;20072;-89
2024/02/25 03:48:48;;;;;;;9.45;3.58;;;;;;;;;;4879616;29;20052;-90
2024/02/25 03:51:18;;;;;;;9.90;4.05;;;;;;;;;;4878186;29;20509;-90
2024/02/25 03:53:48;;;;;;;9.13;3.63;;;;;;;;;;4878192;29;20057;-90
2024/02/25 03:56:18;;;;;;;17.27;3.85;;;;;;;;;;4863185;29;20068;-90
2024/02/25 03:58:48;;;;;;;11.30;3.40;;;;;;;;;;4893919;29;20049;-91
2024/02/25 04:01:18;;;;;;;8.73;3.63;;;;;;;;;;4879734;29;20063;-91
2024/02/25 04:03:48;;;;;;;7.38;3.30;;;;;;;;;;4879400;29;20053;-90
2024/02/25 04:06:18;;;;;;;8.63;3.25;;;;;;;;;;4879808;29;20057;-90
2024/02/25 04:08:49;;;;;;;9.25;3.20;;;;;;;;;;4893775;29;20392;-90
2024/02/25 04:11:21;;;;;;;7.03;3.75;;;;;;;;;;4862748;29;20064;-89
2024/02/25 04:13:51;;;;;;;14.65;3.75;;;;;;;;;;4879940;29;20053;-89
2024/02/25 04:16:22;;;;;;;8.95;3.80;;;;;;;;;;4863011;29;20446;-88
2024/02/25 04:18:53;;;;;;;10.65;3.90;;;;;;;;;;4894148;29;20068;-88
2024/02/25 04:21:24;;;;;;;12.32;3.80;;;;;;;;;;4877369;29;20059;-89
2024/02/25 04:23:54;;;;;;;8.63;4.50;;;;;;;;;;4893624;29;20065;-89
2024/02/25 04:26:25;;;;;;;10.27;3.83;;;;;;;;;;4878892;29;20064;-89
2024/02/25 04:28:54;;;;;;;12.90;5.05;;;;;;;;;;4877975;29;20060;-88
2024/02/25 04:31:26;;;;;;;11.48;4.97;;;;;;;;;;4878021;29;20056;-89
2024/02/25 04:33:57;;;;;;;10.27;3.97;;;;;;;;;;4879924;29;20049;-89
2024/02/25 04:36:28;;;;;;;12.05;4.53;;;;;;;;;;4893459;29;20057;-89
2024/02/25 04:38:59;;;;;;;9.55;4.40;;;;;;;;;;4877471;29;20411;-88
2024/02/25 04:41:29;;;;;;;12.20;4.35;;;;;;;;;;4863160;29;20384;-88
2024/02/25 04:44:00;;;;;;;11.43;4.13;;;;;;;;;;4892668;29;20527;-87
2024/02/25 04:46:31;;;;;;;9.68;3.90;;;;;;;;;;4893598;29;20488;-88
2024/02/25 04:49:01;;;;;;;9.07;3.70;;;;;;;;;;4877199;29;20061;-88
2024/02/25 04:51:35;;;;;;;6.25;3.63;;;;;;;;;;4863025;29;20057;-87
2024/02/25 04:54:06;;;;;;;18.70;3.33;;;;;;;;;;4879187;29;20372;-88
2024/02/25 04:56:41;;;;;;;10.93;4.25;;;;;;;;;;4878089;29;20052;-87
2024/02/25 04:59:12;;;;;;;10.00;3.78;;;;;;;;;;4893262;29;20053;-87
2024/02/25 05:01:44;;;;;;;9.20;3.10;;;;;;;;;;4880042;29;20048;-87
2024/02/25 05:04:14;;;;;;;9.38;3.40;;;;;;;;;;4893273;29;20045;-87
2024/02/25 05:06:45;;;;;;;13.32;4.53;;;;;;;;;;4862882;29;20049;-87
2024/02/25 05:09:16;;;;;;;10.07;4.30;;;;;;;;;;4877357;29;20393;-87
2024/02/25 05:11:47;;;;;;;10.68;4.15;;;;;;;;;;4877574;29;20049;-87
2024/02/25 05:14:20;;;;;;;11.05;4.47;;;;;;;;;;4893091;29;20056;-90
2024/02/25 05:16:53;;;;;;;18.38;4.38;;;;;;;;;;4862218;29;20064;-89
2024/02/25 05:19:25;;;;;;;7.60;3.50;;;;;;;;;;4877984;29;20053;-89
2024/02/25 05:21:56;;;;;;;12.52;4.00;;;;;;;;;;4878034;29;20064;-89
2024/02/25 05:24:26;;;;;;;11.05;4.25;;;;;;;;;;4893532;29;20072;-89
2024/02/25 05:26:58;;;;;;;11.73;4.88;;;;;;;;;;4892773;29;20053;-89
2024/02/25 05:29:29;;;;;;;14.02;4.82;;;;;;;;;;4893574;29;20059;-89
2024/02/25 05:32:00;;;;;;;11.05;4.78;;;;;;;;;;4893324;29;20057;-90
2024/02/25 05:34:30;;;;;;;9.60;4.97;;;;;;;;;;4877801;29;20376;-90
2024/02/25 05:37:01;;;;;;;13.27;5.82;;;;;;;;;;4863293;29;20068;-89
2024/02/25 05:39:33;;;;;;;11.07;4.78;;;;;;;;;;4877539;29;20061;-89
2024/02/25 05:42:04;;;;;;;8.68;4.65;;;;;;;;;;4878028;29;20060;-90
2024/02/25 05:44:35;;;;;;;13.10;4.65;;;;;;;;;;4877341;29;20053;-89
2024/02/25 05:47:05;;;;;;;13.55;4.70;;;;;;;;;;4862113;29;20057;-90
2024/02/25 05:49:37;;;;;;;13.63;4.32;;;;;;;;;;4877743;29;20065;-88
2024/02/25 05:52:08;;;;;;;12.70;4.53;;;;;;;;;;4864947;29;20049;-89
2024/02/25 05:54:39;;;;;;;16.42;4.65;;;;;;;;;;4865680;29;20053;-89
2024/02/25 05:57:10;;;;;;;10.85;4.03;;;;;;;;;;4865725;29;20049;-89
2024/02/25 05:59:41;;;;;;;9.48;3.75;;;;;;;;;;4896546;29;20049;-90
2024/02/25 06:02:14;;;;;;;10.25;3.70;;;;;;;;;;4881496;29;20392;-89
2024/02/25 06:04:46;;;;;;;8.68;4.00;;;;;;;;;;4895913;29;20060;-87
2024/02/25 06:07:17;;;;;;;7.75;3.90;;;;;;;;;;4896318;29;20052;-88
2024/02/25 06:09:48;;;;;;;11.35;4.07;;;;;;;;;;4882207;29;20060;-89
2024/02/25 06:12:19;;;;;;;13.63;4.68;;;;;;;;;;4866259;29;20049;-89
2024/02/25 06:14:50;;;;;;;10.65;3.80;;;;;;;;;;4896405;29;20060;-89
2024/02/25 06:17:20;;;;;;;13.35;4.75;;;;;;;;;;4895861;29;20064;-89
2024/02/25 06:19:52;;;;;;;10.52;4.28;;;;;;;;;;4895842;29;20496;-89
2024/02/25 06:22:22;;;;;;;8.50;4.18;;;;;;;;;;4880449;29;20064;-88
2024/02/25 06:24:53;;;;;;;9.68;3.95;;;;;;;;;;4880663;29;20056;-89
2024/02/25 06:27:23;;;;;;;10.30;4.10;;;;;;;;;;4880732;29;20112;-89
2024/02/25 06:29:55;;;;;;;10.18;3.97;;;;;;;;;;4880099;29;20053;-89
2024/02/25 06:32:25;;;;;;;13.00;4.25;;;;;;;;;;4879478;29;20056;-89
2024/02/25 06:34:58;;;;;;;10.98;4.63;;;;;;;;;;4863550;29;20049;-89
2024/02/25 06:37:31;;;;;;;12.93;4.68;;;;;;;;;;4896542;29;20049;-88
2024/02/25 06:40:03;;;;;;;11.73;4.78;;;;;;;;;;4865444;29;20041;-89
2024/02/25 06:42:34;;;;;;;10.27;4.63;;;;;;;;;;4880439;29;20060;-90
2024/02/25 06:45:04;;;;;;;13.02;4.10;;;;;;;;;;4867696;29;20067;-89
2024/02/25 06:47:36;;;;;;;13.30;3.75;;;;;;;;;;4865346;29;20060;-89
2024/02/25 06:50:06;;;;;;;13.52;4.50;;;;;;;;;;4879040;29;20057;-89
2024/02/25 06:52:37;;;;;;;11.73;4.80;;;;;;;;;;4880176;29;20052;-89
2024/02/25 06:55:09;;;;;;;15.68;4.90;;;;;;;;;;4894972;29;20044;-89
2024/02/25 06:57:39;;;;;;;13.02;4.90;;;;;;;;;;4864745;29;20068;-89
2024/02/25 07:00:10;;;;;;;12.65;4.72;;;;;;;;;;4881188;29;20492;-90
2024/02/25 07:02:40;;;;;;;8.82;3.83;;;;;;;;;;4878598;29;20060;-89
2024/02/25 07:05:11;;;;;;;9.75;4.32;;;;;;;;;;4879862;29;20491;-89
2024/02/25 07:07:41;;;;;;;10.68;3.58;;;;;;;;;;4863581;29;20056;-89
2024/02/25 07:10:11;;;;;;;18.17;5.25;;;;;;;;;;4879212;29;20420;-89
2024/02/25 07:12:42;;;;;;;13.27;4.15;;;;;;;;;;4881059;29;20045;-89
2024/02/25 07:15:14;;;;;;;11.00;4.13;;;;;;;;;;4894954;29;20488;-89
2024/02/25 07:17:52;;;;;;;8.52;4.22;;;;;;;;;;4878746;29;20045;-89
2024/02/25 07:20:23;;;;;;;10.13;3.85;;;;;;;;;;4895434;29;20142;-91
2024/02/25 07:22:55;;;;;;;10.57;3.63;;;;;;;;;;4879256;29;20052;-91
2024/02/25 07:25:26;;;;;;;8.77;3.72;;;;;;;;;;4879979;29;20053;-90
2024/02/25 07:27:56;;;;;;;6.95;3.97;;;;;;;;;;4880168;29;20053;-90
2024/02/25 07:30:28;;;;;;;14.10;4.03;;;;;;;;;;4894553;29;20514;-89
2024/02/25 07:32:58;;;;;;;10.23;3.35;;;;;;;;;;4863405;29;20056;-90
2024/02/25 07:35:28;;;;;;;10.38;3.85;;;;;;;;;;4879068;29;20519;-91
2024/02/25 07:38:00;;;;;;;8.15;3.60;;;;;;;;;;4894316;29;20408;-91
2024/02/25 07:40:33;;;;;;;14.13;4.20;;;;;;;;;;4879128;29;20480;-90
2024/02/25 07:43:04;;;;;;;8.45;4.88;;;;;;;;;;4879004;29;20045;-90
2024/02/25 07:45:35;;;;;;;13.38;4.68;;;;;;;;;;4879461;29;20060;-91
2024/02/25 07:48:05;;;;;;;17.00;4.10;;;;;;;;;;4880461;29;20523;-90
2024/02/25 07:50:36;;;;;;;10.93;3.97;;;;;;;;;;4863767;29;20049;-90
2024/02/25 07:53:06;;;;;;;12.52;3.70;;;;;;;;;;4860547;29;20124;-90
2024/02/25 07:55:39;;;;;;;15.25;4.72;;;;;;;;;;4875387;29;20061;-90
2024/02/25 07:58:09;;;;;;;14.57;4.00;;;;;;;;;;4875605;29;20049;-90
2024/02/25 08:00:40;;;;;;;11.57;4.32;;;;;;;;;;4860892;29;20049;-90
2024/02/25 08:03:10;;;;;;;11.00;4.43;;;;;;;;;;4845539;29;20046;-90
2024/02/25 08:05:43;;;;;;;15.90;4.72;;;;;;;;;;4875600;29;20527;-90
2024/02/25 08:08:13;;;;;;;12.82;4.63;;;;;;;;;;4860919;29;20058;-89
2024/02/25 08:10:44;;;;;;;14.05;4.57;;;;;;;;;;4861620;29;20068;-89
2024/02/25 08:13:16;;;;;;;10.48;4.22;;;;;;;;;;4861665;29;20049;-89
2024/02/25 08:15:46;;;;;;;9.32;4.28;;;;;;;;;;4874064;29;20061;-90
2024/02/25 08:18:17;;;;;;;7.97;4.43;;;;;;;;;;4876162;29;20049;-89
2024/02/25 08:20:48;;;;;;;10.05;4.28;;;;;;;;;;4861562;29;20061;-89
2024/02/25 08:23:18;;;;;;;11.85;4.57;;;;;;;;;;4844155;29;20531;-89
2024/02/25 08:25:48;;;;;;;10.63;4.38;;;;;;;;;;4875026;29;20493;-89
2024/02/25 08:28:18;;;;;;;14.38;4.82;;;;;;;;;;4861472;29;20060;-89
2024/02/25 08:30:50;;;;;;;8.40;4.07;;;;;;;;;;4860292;29;20061;-89
2024/02/25 08:33:22;;;;;;;11.27;4.07;;;;;;;;;;4861197;29;20056;-89
2024/02/25 08:35:53;;;;;;;10.57;4.25;;;;;;;;;;4860064;29;20049;-89
2024/02/25 08:38:23;;;;;;;8.70;4.00;;;;;;;;;;4874439;29;20053;-90
2024/02/25 08:40:54;;;;;;;20.00;5.28;;;;;;;;;;4860078;29;20057;-89
2024/02/25 08:43:26;;;;;;;7.95;4.03;;;;;;;;;;4845203;29;20056;-90
2024/02/25 08:45:57;;;;;;;17.95;5.28;;;;;;;;;;4875010;29;20429;-88
2024/02/25 08:48:28;;;;;;;12.57;4.40;;;;;;;;;;4875240;29;20436;-89
2024/02/25 08:51:00;;;;;;;14.48;4.20;;;;;;;;;;4874944;29;20053;-89
2024/02/25 08:53:31;;;;;;;10.82;4.57;;;;;;;;;;4860025;29;20069;-89
2024/02/25 08:56:01;;;;;;;11.70;4.55;;;;;;;;;;4861433;29;20508;-89
2024/02/25 08:58:31;;;;;;;8.98;3.92;;;;;;;;;;4843931;29;20061;-89
2024/02/25 09:01:02;;;;;;;12.13;4.70;;;;;;;;;;4865309;29;20060;-89
2024/02/25 09:03:32;;;;;;;12.48;4.63;;;;;;;;;;4877571;29;20049;-89
2024/02/25 09:06:18;;;;;;;11.57;4.15;;;;;;;;;;4865732;29;20049;-89
2024/02/25 09:08:48;;;;;;;8.88;3.83;;;;;;;;;;4862754;29;20057;-88
2024/02/25 09:11:19;;;;;;;10.77;3.30;;;;;;;;;;4877696;29;20434;-89
2024/02/25 09:13:54;;;;;;;11.20;3.90;;;;;;;;;;4879248;29;20060;-89
2024/02/25 09:16:25;;;;;;;11.90;4.40;;;;;;;;;;4877987;29;20424;-89
2024/02/25 09:18:58;;;;;;;8.43;3.95;;;;;;;;;;4879015;29;20052;-89
2024/02/25 09:21:31;;;;;;;5.95;3.30;;;;;;;;;;4892883;29;20460;-89
2024/02/25 09:24:02;;;;;;;8.02;4.07;;;;;;;;;;4876329;29;20427;-89
2024/02/25 09:26:33;;;;;;;8.68;3.97;;;;;;;;;;4866191;29;20033;-89
2024/02/25 09:29:04;;;;;;;13.52;4.43;;;;;;;;;;4879074;29;20060;-90
2024/02/25 09:31:35;;;;;;;14.88;4.15;;;;;;;;;;4859913;29;20062;-88
2024/02/25 09:34:11;;;;;;;9.32;4.00;;;;;;;;;;4830078;29;20053;-90
2024/02/25 09:36:43;;;;;;;9.07;4.63;;;;;;;;;;4845760;29;20540;-89
2024/02/25 09:39:14;;;;;;;13.25;4.65;;;;;;;;;;4845958;29;20505;-88
2024/02/25 09:41:45;;;;;;;14.55;4.63;;;;;;;;;;4847470;29;20060;-88
2024/02/25 09:44:25;;;;;;;12.18;4.03;;;;;;;;;;4846956;29;20464;-90
2024/02/25 09:46:56;;;;;;;12.45;3.83;;;;;;;;;;4862136;29;20054;-89
2024/02/25 09:49:28;;;;;;;8.30;3.60;;;;;;;;;;4846426;29;20064;-90
2024/02/25 09:52:02;;;;;;;13.93;4.53;;;;;;;;;;4847050;29;20053;-89
2024/02/25 09:54:32;;;;;;;14.52;4.78;;;;;;;;;;4846334;29;20063;-89
2024/02/25 09:57:03;;;;;;;11.32;4.40;;;;;;;;;;4846520;29;20080;-89
2024/02/25 09:59:34;;;;;;;11.93;4.70;;;;;;;;;;4865048;29;20064;-88
2024/02/25 10:02:08;;;;;;;11.25;4.60;;;;;;;;;;4847099;29;20056;-90
2024/02/25 10:04:39;;;;;;;16.67;4.55;;;;;;;;;;4847048;29;20506;-89
2024/02/25 10:07:14;;;;;;;19.92;5.43;;;;;;;;;;4846361;29;20076;-88
2024/02/25 10:09:49;;;;;;;11.13;4.57;;;;;;;;;;4846406;29;20508;-89
2024/02/25 10:12:22;;;;;;;11.38;4.47;;;;;;;;;;4846549;29;20061;-88
2024/02/25 10:14:54;;;;;;;10.23;4.70;;;;;;;;;;4849679;29;20052;-88
2024/02/25 10:17:24;;;;;;;10.68;5.05;;;;;;;;;;4896036;29;20049;-88
2024/02/25 10:20:01;;;;;;;16.00;4.93;;;;;;;;;;4895969;29;20519;-88
2024/02/25 10:22:31;;;;;;;11.30;4.32;;;;;;;;;;4881940;29;20052;-88
2024/02/25 10:25:04;;;;;;;15.30;4.07;;;;;;;;;;4882207;29;20049;-89
2024/02/25 10:27:35;;;;;;;10.27;3.65;;;;;;;;;;4896306;29;20053;-90
2024/02/25 10:30:09;;;;;;;8.18;3.53;;;;;;;;;;4895965;29;20053;-90
2024/02/25 10:32:40;;;;;;;7.43;3.58;;;;;;;;;;4882027;29;20052;-89
2024/02/25 10:35:14;;;;;;;7.65;3.78;;;;;;;;;;4880702;29;20052;-91
2024/02/25 10:37:46;;;;;;;10.77;4.03;;;;;;;;;;4893852;29;20056;-89
2024/02/25 10:40:18;;;;;;;8.20;4.22;;;;;;;;;;4879371;29;20049;-90
2024/02/25 10:42:50;;;;;;;11.48;4.18;;;;;;;;;;4891408;29;20053;-90
2024/02/25 10:45:23;;;;;;;14.38;4.25;;;;;;;;;;4882578;29;20060;-90
2024/02/25 10:47:55;;;;;;;;;;;;;;;;;;4897002;29;20052;-90
2024/02/25 10:50:27;;;;;;;6.53;3.80;;;;;;;;;;4912985;29;19930;-88
2024/02/25 10:52:59;;;;;;;8.88;4.47;;;;;;;;;;4913427;29;20049;-89
2024/02/25 10:55:31;;;;;;;7.68;4.40;;;;;;;;;;4897126;29;20048;-89
2024/02/25 10:58:02;;;;;;;10.27;4.78;;;;;;;;;;4882275;29;20052;-89
2024/02/25 11:00:33;;;;;;;9.85;4.47;;;;;;;;;;4897654;29;20063;-89
2024/02/25 11:03:05;;;;;;;11.95;4.45;;;;;;;;;;4913141;29;20059;-88
2024/02/25 11:05:36;;;;;;;11.02;4.00;;;;;;;;;;4896301;29;20064;-88
2024/02/25 11:08:09;;;;;;;10.90;4.00;;;;;;;;;;4912439;29;20048;-88
2024/02/25 11:10:45;;;;;;;9.52;3.35;;;;;;;;;;4897577;29;20064;-87
2024/02/25 11:13:23;;;;;;;9.18;3.63;;;;;;;;;;4880879;29;20152;-87
2024/02/25 11:15:56;;;;;;;6.85;3.55;;;;;;;;;;4879054;29;20045;-89
2024/02/25 11:18:26;;;;;;;8.57;4.45;;;;;;;;;;4894062;29;20455;-87
2024/02/25 11:21:11;;;;;;;11.60;3.97;;;;;;;;;;4903953;29;20053;-87
2024/02/25 11:23:46;;;;;;;10.63;4.40;;;;;;;;;;4879367;29;20048;-89
2024/02/25 11:26:41;;;;;;;10.88;4.32;;;;;;;;;;4879103;29;20049;-88
2024/02/25 11:29:17;;;;;;;6.32;3.42;;;;;;;;;;4880472;29;20037;-88
2024/02/25 11:32:00;;;;;;;10.10;3.50;;;;;;;;;;4892683;29;20080;-88
2024/02/25 11:34:31;;;;;;;8.23;3.33;;;;;;;;;;4893791;29;20045;-88
2024/02/25 11:37:06;;;;;;;9.82;2.95;;;;;;;;;;4893203;29;20423;-88
2024/02/25 11:39:36;;;;;;;8.18;2.80;;;;;;;;;;4893725;29;20064;-86
2024/02/25 11:42:07;;;;;;;9.60;3.00;;;;;;;;;;4898961;29;20068;-87
2024/02/25 11:44:37;;;;;;;7.78;2.63;;;;;;;;;;4881304;29;20064;-86
2024/02/25 11:47:11;;;;;;;5.18;2.80;;;;;;;;;;4912777;29;20056;-86
2024/02/25 11:49:42;;;;;;;;;;;;;;;;;;4887607;29;20045;-86
2024/02/25 11:52:13;;;;;;;7.28;2.22;;;;;;;;;;4878743;29;19930;-86
2024/02/25 11:54:43;;;;;;;3.58;2.17;;;;;;;;;;4879494;29;20049;-86
2024/02/25 11:57:17;;;;;;;3.25;1.95;;;;;;;;;;4878684;29;20511;-86
2024/02/25 11:59:47;;;;;;;;;;;;;;;;;;4894757;29;20420;-85
2024/02/25 12:02:18;;;;;;;5.03;2.17;;;;;;;;;;4878790;29;19931;-84
2024/02/25 12:04:48;;;;;;;3.75;1.80;;;;;;;;;;4880038;29;20408;-85
2024/02/25 12:07:20;;;;;;;4.65;2.10;;;;;;;;;;4879070;29;20048;-84
2024/02/25 12:09:51;;;;;;;5.50;1.98;;;;;;;;;;4885707;29;20049;-84
2024/02/25 12:12:22;;;;;;;;;;;;;;;;;;4879116;29;20044;-84
2024/02/25 12:14:52;;;;;;;3.72;2.03;;;;;;;;;;4876235;29;20299;-84
2024/02/25 12:17:23;;;;;;;4.70;1.75;;;;;;;;;;4893147;29;20057;-84
2024/02/25 12:19:55;;;;;;;4.95;1.90;;;;;;;;;;4893802;29;20053;-84
2024/02/25 12:22:26;;;;;;;5.13;2.22;;;;;;;;;;4879885;29;20376;-84
2024/02/25 12:24:56;;;;;;;5.50;2.30;;;;;;;;;;4877347;29;20048;-84
2024/02/25 12:27:28;;;;;;;9.65;2.22;;;;;;;;;;4879928;29;20408;-82
2024/02/25 12:30:00;;;;;;;3.58;2.28;;;;;;;;;;4862298;29;20504;-85
2024/02/25 12:32:30;;;;;;;4.65;2.20;;;;;;;;;;4879793;29;20041;-86
2024/02/25 12:35:00;;;;;;;4.32;2.15;;;;;;;;;;4878046;29;20492;-85
2024/02/25 12:37:31;;;;;;;3.17;2.08;;;;;;;;;;4862298;29;20049;-85
2024/02/25 12:40:04;;;;;;;4.25;2.05;;;;;;;;;;4863093;29;20060;-86
2024/02/25 12:42:40;;;;;;;6.72;2.25;;;;;;;;;;4863413;29;20053;-87
2024/02/25 12:45:10;;;;;;;5.40;1.92;;;;;;;;;;4863292;29;20048;-85
2024/02/25 12:47:40;;;;;;;7.28;2.10;;;;;;;;;;4862380;29;20403;-87
2024/02/25 12:50:11;;;;;;;2.35;1.88;;;;;;;;;;4898951;29;20052;-87
2024/02/25 12:52:43;;;;;;;2.83;1.58;;;;;;;;;;4856922;29;20405;-88
2024/02/25 12:55:14;;;;;;;4.40;2.38;;;;;;;;;;4875123;29;20048;-89
2024/02/25 12:57:45;;;;;;;7.35;1.80;;;;;;;;;;4895281;29;20045;-88
2024/02/25 13:00:16;;;;;;;4.65;2.20;;;;;;;;;;4897434;29;20048;-89
2024/02/25 13:02:47;;;;;;;8.45;4.60;;;;;;;;;;4902237;29;20047;-89
2024/02/25 13:05:17;;;;;;;6.43;2.22;;;;;;;;;;4901928;29;20064;-88
2024/02/25 13:07:50;;;;;;;3.63;2.17;;;;;;;;;;4903054;29;20052;-86
2024/02/25 13:10:21;;;;;;;5.03;2.28;;;;;;;;;;4902257;29;20051;-91
2024/02/25 13:12:55;;;;;;;4.25;2.70;;;;;;;;;;4902705;29;20052;-89
2024/02/25 13:15:25;;;;;;;4.38;2.05;;;;;;;;;;4901263;29;20056;-89
2024/02/25 13:17:58;;;;;;;3.95;2.13;;;;;;;;;;4917288;29;20488;-87
2024/02/25 13:20:28;;;;;;;4.05;2.67;;;;;;;;;;4903349;29;20518;-88
2024/02/25 13:23:00;;;;;;;4.13;1.75;;;;;;;;;;4903011;29;20060;-86
2024/02/25 13:25:34;;;;;;;4.22;2.00;;;;;;;;;;4900808;29;20052;-88
2024/02/25 13:28:10;;;;;;;4.20;1.92;;;;;;;;;;4901995;29;20053;-88
2024/02/25 13:30:41;;;;;;;4.68;2.22;;;;;;;;;;4902675;29;20048;-85
2024/02/25 13:33:12;;;;;;;3.33;2.13;;;;;;;;;;4902867;29;20495;-88
2024/02/25 13:35:44;;;;;;;2.63;1.70;;;;;;;;;;4896325;29;20052;-88
2024/02/25 13:38:17;;;;;;;3.40;2.20;;;;;;;;;;4898222;29;20065;-88
2024/02/25 13:40:49;;;;;;;5.07;2.05;;;;;;;;;;4881627;29;20068;-89
2024/02/25 13:43:20;;;;;;;6.88;2.40;;;;;;;;;;4898923;29;20072;-88
2024/02/25 13:45:51;;;;;;;5.20;2.20;;;;;;;;;;4889060;29;20072;-90
2024/02/25 13:48:21;;;;;;;;;;;;;;;;;;4884519;29;20052;-88
2024/02/25 13:50:51;;;;;;;4.38;2.10;;;;;;;;;;4897362;29;20287;-88
2024/02/25 13:53:24;;;;;;;4.93;1.80;;;;;;;;;;4867913;29;20049;-88
2024/02/25 13:55:55;;;;;;;6.32;3.08;;;;;;;;;;4883532;29;20041;-89
2024/02/25 13:58:25;;;;;;;4.93;2.22;;;;;;;;;;4882405;29;20057;-89
2024/02/25 14:00:55;;;;;;;3.20;1.80;;;;;;;;;;4882618;29;20060;-86
2024/02/25 14:03:25;;;;;;;5.03;2.30;;;;;;;;;;4885199;29;20048;-87
2024/02/25 14:05:56;;;;;;;5.15;1.95;;;;;;;;;;4869242;29;20053;-88
2024/02/25 14:08:30;;;;;;;7.95;4.18;;;;;;;;;;4882849;29;20503;-88
2024/02/25 14:11:03;;;;;;;8.85;4.40;;;;;;;;;;4882916;29;20049;-88
2024/02/25 14:13:33;;;;;;;3.25;2.25;;;;;;;;;;4882346;29;20052;-88
2024/02/25 14:16:04;;;;;;;4.13;1.92;;;;;;;;;;4879528;29;20068;-88
2024/02/25 14:18:35;;;;;;;4.05;1.98;;;;;;;;;;4880098;29;20067;-88
2024/02/25 14:21:06;;;;;;;6.15;3.80;;;;;;;;;;4881827;29;20127;-87
2024/02/25 14:23:36;;;;;;;5.25;2.53;;;;;;;;;;4896362;29;20499;-89
2024/02/25 14:26:06;;;;;;;9.02;5.13;;;;;;;;;;4895502;29;20057;-88
2024/02/25 14:28:36;;;;;;;6.20;3.53;;;;;;;;;;4879964;29;20381;-88
2024/02/25 14:31:07;;;;;;;11.90;6.82;;;;;;;;;;4880451;29;20503;-87
2024/02/25 14:33:38;;;;;;;4.55;2.00;;;;;;;;;;4881668;29;20049;-87
2024/02/25 14:36:08;;;;;;;4.97;2.22;;;;;;;;;;4880238;29;20048;-88
2024/02/25 14:38:38;;;;;;;3.38;2.20;;;;;;;;;;4879273;29;20412;-85
2024/02/25 14:41:10;;;;;;;3.53;2.00;;;;;;;;;;4882303;29;20076;-85
2024/02/25 14:43:42;;;;;;;4.85;2.40;;;;;;;;;;4895347;29;20072;-85
2024/02/25 14:46:12;;;;;;;6.57;2.17;;;;;;;;;;4895493;29;20093;-88
2024/02/25 14:48:43;;;;;;;4.40;1.88;;;;;;;;;;4895353;29;20075;-88
2024/02/25 14:51:13;;;;;;;21.17;14.05;;;;;;;;;;4879822;29;20399;-86
2024/02/25 14:53:44;;;;;;;5.53;1.80;;;;;;;;;;4878782;29;20049;-87
2024/02/25 14:56:17;;;;;;;4.88;1.92;;;;;;;;;;4878981;29;20115;-87
2024/02/25 14:59:00;;;;;;;5.75;2.47;;;;;;;;;;4860812;29;20061;-87
2024/02/25 15:01:41;;;;;;;71.07;44.03;;;;;;;;;;4874445;29;20053;-86
2024/02/25 15:04:13;;;;;;;6.28;3.42;;;;;;;;;;4876210;29;20397;-90